createdAt,value
2018-07-01T00:01:01.802Z,94.70
2018-07-01T00:03:37.327Z,94.70
2018-07-01T00:06:12.385Z,95.00
2018-07-01T00:08:40.828Z,95.10
2018-07-01T00:11:09.782Z,95.10
2018-07-01T00:13:41.115Z,95.30
2018-07-01T00:16:14.795Z,95.30
2018-07-01T00:18:50.863Z,95.40
2018-07-01T00:23:51.952Z,95.50
2018-07-01T00:26:24.583Z,95.60
2018-07-01T00:31:26.522Z,95.90
2018-07-01T00:34:08.713Z,96.00
2018-07-01T00:36:49.577Z,96.10
2018-07-01T00:39:17.955Z,96.20
2018-07-01T00:41:50.375Z,96.40
2018-07-01T00:44:25.063Z,96.50
2018-07-01T00:46:53.293Z,96.60
2018-07-01T00:51:52.217Z,96.90
2018-07-01T00:54:29.925Z,97.00
2018-07-01T00:56:58.463Z,97.10
2018-07-01T00:59:26.766Z,97.20
2018-07-01T01:01:59.303Z,97.40
2018-07-01T01:04:27.620Z,97.60
2018-07-01T01:07:05.245Z,97.70
2018-07-01T01:09:33.530Z,97.80
2018-07-01T01:12:08.026Z,97.80
2018-07-01T01:14:44.900Z,97.70
2018-07-01T01:17:16.154Z,97.80
2018-07-01T01:19:53.201Z,97.90
2018-07-01T01:22:26.409Z,98.00
2018-07-01T01:24:57.748Z,98.20
2018-07-01T01:27:28.763Z,98.20
2018-07-01T01:30:00.141Z,98.40
2018-07-01T01:32:36.978Z,98.40
2018-07-01T01:35:05.573Z,98.60
2018-07-01T01:37:36.691Z,98.60
2018-07-01T01:42:46.035Z,98.80
2018-07-01T01:45:59.499Z,98.90
2018-07-01T01:48:36.197Z,99.00
2018-07-01T01:51:13.679Z,99.00
2018-07-01T01:53:47.916Z,99.00
2018-07-01T01:56:21.291Z,99.10
2018-07-01T01:59:04.146Z,99.10
2018-07-01T02:01:47.351Z,99.20
2018-07-01T02:04:30.133Z,99.40
2018-07-01T02:07:26.657Z,99.50
2018-07-01T02:09:54.934Z,99.50
2018-07-01T02:12:29.798Z,99.40
2018-07-01T02:15:02.673Z,99.50
2018-07-01T02:17:37.438Z,99.50
2018-07-01T02:20:08.449Z,99.50
2018-07-01T02:22:52.208Z,99.70
2018-07-01T02:25:25.234Z,99.70
2018-07-01T02:27:57.365Z,99.70
2018-07-01T02:30:25.940Z,99.80
2018-07-01T02:32:54.338Z,99.90
2018-07-01T02:35:22.759Z,99.90
2018-07-01T02:37:51.295Z,99.90
2018-07-01T02:40:19.655Z,99.90
2018-07-01T02:42:53.273Z,99.90
2018-07-01T02:45:21.579Z,99.90
2018-07-01T02:47:53.969Z,99.90
2018-07-01T02:50:28.588Z,99.90
2018-07-01T02:52:56.807Z,99.90
2018-07-01T02:55:27.248Z,99.90
2018-07-01T02:57:59.801Z,99.90
2018-07-01T03:00:34.570Z,99.90
2018-07-01T03:03:02.825Z,99.90
2018-07-01T03:05:37.244Z,99.90
2018-07-01T03:08:10.709Z,99.90
2018-07-01T03:10:45.494Z,99.90
2018-07-01T03:13:13.933Z,99.90
2018-07-01T03:15:42.186Z,99.90
2018-07-01T03:18:14.745Z,99.90
2018-07-01T03:20:42.957Z,99.90
2018-07-01T03:23:17.492Z,99.90
2018-07-01T03:25:52.105Z,99.90
2018-07-01T03:28:20.539Z,99.90
2018-07-01T03:30:51.533Z,99.90
2018-07-01T03:33:33.327Z,99.90
2018-07-01T03:38:31.819Z,99.90
2018-07-01T03:41:02.065Z,99.90
2018-07-01T03:43:30.350Z,99.90
2018-07-01T03:46:03.772Z,99.90
2018-07-01T03:48:36.161Z,99.90
2018-07-01T03:51:11.509Z,99.90
2018-07-01T03:53:41.809Z,99.90
2018-07-01T03:56:10.243Z,99.90
2018-07-01T03:58:43.738Z,99.90
2018-07-01T04:01:15.072Z,99.90
2018-07-01T04:03:55.205Z,99.90
2018-07-01T04:06:23.415Z,99.90
2018-07-01T04:08:58.169Z,99.90
2018-07-01T04:11:26.401Z,99.90
2018-07-01T04:14:04.292Z,99.90
2018-07-01T04:16:34.711Z,99.90
2018-07-01T04:19:03.186Z,99.90
2018-07-01T04:21:31.599Z,99.90
2018-07-01T04:23:59.889Z,99.90
2018-07-01T04:26:28.173Z,99.90
2018-07-01T04:29:03.148Z,99.90
2018-07-01T04:31:31.552Z,99.90
2018-07-01T04:34:00.048Z,99.90
2018-07-01T04:36:28.441Z,99.90
2018-07-01T04:38:56.690Z,99.90
2018-07-01T04:41:27.757Z,99.90
2018-07-01T04:44:10.093Z,99.90
2018-07-01T04:46:41.428Z,99.60
2018-07-01T04:49:10.168Z,99.20
2018-07-01T04:51:41.326Z,98.60
2018-07-01T04:54:09.720Z,98.20
2018-07-01T04:56:38.083Z,97.90
2018-07-01T04:59:06.477Z,97.60
2018-07-01T05:01:39.721Z,97.20
2018-07-01T05:04:13.361Z,97.10
2018-07-01T05:06:46.430Z,97.00
2018-07-01T05:09:17.792Z,97.00
2018-07-01T05:11:48.525Z,96.70
2018-07-01T05:14:19.196Z,96.60
2018-07-01T05:16:54.495Z,96.50
2018-07-01T05:19:29.254Z,96.50
2018-07-01T05:21:57.593Z,96.50
2018-07-01T05:24:32.216Z,96.50
2018-07-01T05:27:00.480Z,96.40
2018-07-01T05:29:40.309Z,96.10
2018-07-01T05:32:08.498Z,95.80
2018-07-01T05:34:41.076Z,95.30
2018-07-01T05:37:09.350Z,94.90
2018-07-01T05:39:45.175Z,94.00
2018-07-01T05:42:13.392Z,93.20
2018-07-01T05:47:14.653Z,92.10
2018-07-01T05:49:43.111Z,91.40
2018-07-01T05:52:11.336Z,88.90
2018-07-01T05:54:50.113Z,89.90
2018-07-01T05:57:18.414Z,89.10
2018-07-01T05:59:46.707Z,88.30
2018-07-01T06:02:23.416Z,87.20
2018-07-01T06:04:51.633Z,85.50
2018-07-01T06:07:24.679Z,83.60
2018-07-01T06:10:04.582Z,82.70
2018-07-01T06:12:32.826Z,81.80
2018-07-01T06:15:07.325Z,81.60
2018-07-01T06:17:38.473Z,80.30
2018-07-01T06:20:12.850Z,79.30
2018-07-01T06:22:43.415Z,78.30
2018-07-01T06:27:57.041Z,77.70
2018-07-01T06:30:25.502Z,76.60
2018-07-01T06:32:53.931Z,75.20
2018-07-01T06:35:22.134Z,74.60
2018-07-01T06:37:58.135Z,73.80
2018-07-01T06:40:40.327Z,72.60
2018-07-01T06:43:08.898Z,72.10
2018-07-01T06:45:37.375Z,71.20
2018-07-01T06:48:05.738Z,71.90
2018-07-01T06:50:33.954Z,69.70
2018-07-01T06:55:43.151Z,68.40
2018-07-01T06:58:11.352Z,68.10
2018-07-01T07:00:44.069Z,67.60
2018-07-01T07:03:12.291Z,66.70
2018-07-01T07:05:49.494Z,66.20
2018-07-01T07:08:20.532Z,66.20
2018-07-01T07:10:49.143Z,65.60
2018-07-01T07:13:20.457Z,65.50
2018-07-01T07:15:49.257Z,65.40
2018-07-01T07:18:22.946Z,65.40
2018-07-01T07:20:54.214Z,65.10
2018-07-01T07:23:28.441Z,64.50
2018-07-01T07:25:56.795Z,64.70
2018-07-01T07:28:25.063Z,64.80
2018-07-01T07:30:57.290Z,64.00
2018-07-01T07:33:28.297Z,64.10
2018-07-01T07:35:56.681Z,61.80
2018-07-01T07:38:24.932Z,61.20
2018-07-01T07:41:02.349Z,60.60
2018-07-01T07:43:36.934Z,61.30
2018-07-01T07:46:05.393Z,61.40
2018-07-01T07:48:36.186Z,59.10
2018-07-01T07:51:04.725Z,59.40
2018-07-01T07:53:33.149Z,59.10
2018-07-01T07:56:01.653Z,58.20
2018-07-01T07:58:29.873Z,57.60
2018-07-01T08:01:02.273Z,56.90
2018-07-01T08:03:34.505Z,55.80
2018-07-01T08:06:06.675Z,55.00
2018-07-01T08:08:34.961Z,54.70
2018-07-01T08:13:38.555Z,52.60
2018-07-01T08:16:12.829Z,51.40
2018-07-01T08:18:45.169Z,51.10
2018-07-01T08:21:18.945Z,50.10
2018-07-01T08:23:53.462Z,49.80
2018-07-01T08:26:21.770Z,49.50
2018-07-01T08:28:54.493Z,49.60
2018-07-01T08:31:22.729Z,49.60
2018-07-01T08:33:53.684Z,49.50
2018-07-01T08:36:21.961Z,49.00
2018-07-01T08:38:50.270Z,48.80
2018-07-01T08:41:22.899Z,48.40
2018-07-01T08:43:53.885Z,47.80
2018-07-01T08:46:24.091Z,47.40
2018-07-01T08:48:52.230Z,46.40
2018-07-01T08:51:28.906Z,46.90
2018-07-01T08:53:57.206Z,46.80
2018-07-01T08:56:27.725Z,46.30
2018-07-01T08:58:58.138Z,43.90
2018-07-01T09:01:41.043Z,45.80
2018-07-01T09:04:12.198Z,45.70
2018-07-01T09:06:40.493Z,45.80
2018-07-01T09:09:13.736Z,44.80
2018-07-01T09:11:49.150Z,45.40
2018-07-01T09:14:25.453Z,45.80
2018-07-01T09:16:57.670Z,45.00
2018-07-01T09:19:26.017Z,45.10
2018-07-01T09:21:54.590Z,45.20
2018-07-01T09:24:22.992Z,45.00
2018-07-01T09:26:51.776Z,44.40
2018-07-01T09:29:30.733Z,45.40
2018-07-01T09:32:03.043Z,45.40
2018-07-01T09:34:37.708Z,45.70
2018-07-01T09:37:05.982Z,46.20
2018-07-01T09:39:37.196Z,43.60
2018-07-01T09:42:08.564Z,43.50
2018-07-01T09:44:40.165Z,43.70
2018-07-01T09:47:11.130Z,44.30
2018-07-01T09:49:39.880Z,43.60
2018-07-01T09:52:11.049Z,43.40
2018-07-01T09:54:39.313Z,43.90
2018-07-01T09:57:10.773Z,44.20
2018-07-01T09:59:41.988Z,43.80
2018-07-01T10:02:13.209Z,43.50
2018-07-01T10:04:41.654Z,44.10
2018-07-01T10:07:10.070Z,44.00
2018-07-01T10:09:38.346Z,44.00
2018-07-01T10:12:09.392Z,44.50
2018-07-01T10:14:40.629Z,44.60
2018-07-01T10:17:13.176Z,44.30
2018-07-01T10:19:41.605Z,44.40
2018-07-01T10:22:10.059Z,44.10
2018-07-01T10:24:38.542Z,44.00
2018-07-01T10:27:11.556Z,44.40
2018-07-01T10:29:42.746Z,44.60
2018-07-01T10:32:13.241Z,44.30
2018-07-01T10:34:54.521Z,44.60
2018-07-01T10:37:25.421Z,45.00
2018-07-01T10:42:26.429Z,44.50
2018-07-01T10:45:01.204Z,43.90
2018-07-01T10:47:29.447Z,44.60
2018-07-01T10:50:01.972Z,44.70
2018-07-01T10:52:30.222Z,44.70
2018-07-01T10:55:01.618Z,44.20
2018-07-01T10:57:31.896Z,45.20
2018-07-01T11:00:02.325Z,44.90
2018-07-01T11:02:42.347Z,45.10
2018-07-01T11:05:10.629Z,44.50
2018-07-01T11:07:50.584Z,44.20
2018-07-01T11:10:37.884Z,44.00
2018-07-01T11:13:10.639Z,43.50
2018-07-01T11:15:42.116Z,43.70
2018-07-01T11:18:17.493Z,44.10
2018-07-01T11:20:48.250Z,44.30
2018-07-01T11:23:19.273Z,44.70
2018-07-01T11:25:50.526Z,43.30
2018-07-01T11:28:18.695Z,43.20
2018-07-01T11:30:46.890Z,42.60
2018-07-01T11:33:19.287Z,42.40
2018-07-01T11:35:52.487Z,42.60
2018-07-01T11:38:22.977Z,42.00
2018-07-01T11:40:52.014Z,42.30
2018-07-01T11:43:23.101Z,42.10
2018-07-01T11:45:51.365Z,42.60
2018-07-01T11:48:19.761Z,42.70
2018-07-01T11:50:48.457Z,42.50
2018-07-01T11:53:16.903Z,42.70
2018-07-01T11:55:45.084Z,41.80
2018-07-01T11:58:16.145Z,42.00
2018-07-01T12:00:44.520Z,42.00
2018-07-01T12:03:15.279Z,41.90
2018-07-01T12:05:46.590Z,41.70
2018-07-01T12:08:20.310Z,42.30
2018-07-01T12:10:51.521Z,41.90
2018-07-01T12:13:25.483Z,40.90
2018-07-01T12:15:53.694Z,41.10
2018-07-01T12:18:24.762Z,41.20
2018-07-01T12:20:56.079Z,41.40
2018-07-01T12:23:24.353Z,41.10
2018-07-01T12:25:54.725Z,40.70
2018-07-01T12:28:25.523Z,40.50
2018-07-01T12:30:53.840Z,40.80
2018-07-01T12:33:22.093Z,40.30
2018-07-01T12:36:02.264Z,40.10
2018-07-01T12:38:43.809Z,39.60
2018-07-01T12:41:17.175Z,39.30
2018-07-01T12:43:47.576Z,39.40
2018-07-01T12:46:20.977Z,39.80
2018-07-01T12:48:52.212Z,39.90
2018-07-01T12:51:24.728Z,39.60
2018-07-01T12:53:53.260Z,38.90
2018-07-01T12:56:24.231Z,39.00
2018-07-01T12:58:58.842Z,39.00
2018-07-01T13:01:27.062Z,38.70
2018-07-01T13:04:01.642Z,38.90
2018-07-01T13:06:39.761Z,38.50
2018-07-01T13:09:13.328Z,38.70
2018-07-01T13:11:44.362Z,39.00
2018-07-01T13:14:12.958Z,38.90
2018-07-01T13:16:43.428Z,38.90
2018-07-01T13:19:14.613Z,39.00
2018-07-01T13:21:43.002Z,38.60
2018-07-01T13:24:19.447Z,38.50
2018-07-01T13:26:47.756Z,38.30
2018-07-01T13:29:22.244Z,37.40
2018-07-01T13:31:56.956Z,37.70
2018-07-01T13:34:25.138Z,37.70
2018-07-01T13:37:05.250Z,37.20
2018-07-01T13:39:37.496Z,37.70
2018-07-01T13:42:17.803Z,37.10
2018-07-01T13:44:46.018Z,37.90
2018-07-01T13:47:18.379Z,37.90
2018-07-01T13:49:53.136Z,37.70
2018-07-01T13:52:21.514Z,37.90
2018-07-01T13:54:49.783Z,37.60
2018-07-01T13:57:24.526Z,37.60
2018-07-01T13:59:52.883Z,37.80
2018-07-01T14:02:23.914Z,37.60
2018-07-01T14:05:01.844Z,37.20
2018-07-01T14:07:30.096Z,37.60
2018-07-01T14:10:04.925Z,37.40
2018-07-01T14:12:33.106Z,37.60
2018-07-01T14:15:08.019Z,37.70
2018-07-01T14:17:36.306Z,37.60
2018-07-01T14:20:16.862Z,37.40
2018-07-01T14:22:45.033Z,37.00
2018-07-01T14:25:17.390Z,37.30
2018-07-01T14:27:54.024Z,37.40
2018-07-01T14:30:22.296Z,36.80
2018-07-01T14:32:58.713Z,36.70
2018-07-01T14:35:30.031Z,37.30
2018-07-01T14:38:02.500Z,37.10
2018-07-01T14:40:39.319Z,37.30
2018-07-01T14:43:07.723Z,37.40
2018-07-01T14:45:38.749Z,37.10
2018-07-01T14:48:12.487Z,37.00
2018-07-01T14:50:47.533Z,37.00
2018-07-01T14:53:27.590Z,36.90
2018-07-01T14:55:55.892Z,37.10
2018-07-01T14:58:33.578Z,37.40
2018-07-01T15:01:01.997Z,37.20
2018-07-01T15:03:30.256Z,37.20
2018-07-01T15:06:04.107Z,37.20
2018-07-01T15:08:32.587Z,36.40
2018-07-01T15:11:00.977Z,36.60
2018-07-01T15:13:29.215Z,36.80
2018-07-01T15:18:39.198Z,36.80
2018-07-01T15:21:08.174Z,36.90
2018-07-01T15:23:40.606Z,37.00
2018-07-01T15:26:10.881Z,37.40
2018-07-01T15:28:39.142Z,37.50
2018-07-01T15:31:07.754Z,37.50
2018-07-01T15:33:36.075Z,37.70
2018-07-01T15:36:08.725Z,37.40
2018-07-01T15:38:36.942Z,37.60
2018-07-01T15:41:11.616Z,37.70
2018-07-01T15:43:39.993Z,37.80
2018-07-01T15:46:14.570Z,37.50
2018-07-01T15:48:43.028Z,37.50
2018-07-01T15:51:11.239Z,37.90
2018-07-01T15:53:45.760Z,38.10
2018-07-01T15:56:20.289Z,37.70
2018-07-01T15:58:51.390Z,37.70
2018-07-01T16:01:19.647Z,37.40
2018-07-01T16:03:47.968Z,37.30
2018-07-01T16:06:16.186Z,37.40
2018-07-01T16:08:59.682Z,38.10
2018-07-01T16:11:30.697Z,38.30
2018-07-01T16:14:01.031Z,38.00
2018-07-01T16:16:29.436Z,38.30
2018-07-01T16:18:57.933Z,38.30
2018-07-01T16:21:26.430Z,38.40
2018-07-01T16:23:54.865Z,38.50
2018-07-01T16:26:28.574Z,38.60
2018-07-01T16:29:01.001Z,38.70
2018-07-01T16:31:35.200Z,38.90
2018-07-01T16:34:03.461Z,39.10
2018-07-01T16:36:34.478Z,39.10
2018-07-01T16:39:10.381Z,38.70
2018-07-01T16:41:44.890Z,39.50
2018-07-01T16:44:13.159Z,38.80
2018-07-01T16:46:48.550Z,39.10
2018-07-01T16:49:23.156Z,39.40
2018-07-01T16:51:57.721Z,39.40
2018-07-01T16:54:25.988Z,39.60
2018-07-01T16:56:59.159Z,39.70
2018-07-01T16:59:30.326Z,39.80
2018-07-01T17:04:30.163Z,39.50
2018-07-01T17:06:58.506Z,39.50
2018-07-01T17:09:30.924Z,39.40
2018-07-01T17:12:03.442Z,39.00
2018-07-01T17:14:31.875Z,39.60
2018-07-01T17:17:06.495Z,39.80
2018-07-01T17:19:34.757Z,40.00
2018-07-01T17:22:09.411Z,40.10
2018-07-01T17:24:37.666Z,40.10
2018-07-01T17:27:10.744Z,40.10
2018-07-01T17:29:52.753Z,40.30
2018-07-01T17:32:26.589Z,40.50
2018-07-01T17:35:07.430Z,40.70
2018-07-01T17:37:41.405Z,40.80
2018-07-01T17:40:13.891Z,40.70
2018-07-01T17:42:54.018Z,40.90
2018-07-01T17:45:22.311Z,41.10
2018-07-01T17:47:50.540Z,41.70
2018-07-01T17:50:22.959Z,41.90
2018-07-01T17:52:53.823Z,41.40
2018-07-01T17:55:22.213Z,41.60
2018-07-01T17:57:50.487Z,41.80
2018-07-01T18:00:25.034Z,41.90
2018-07-01T18:02:57.596Z,41.80
2018-07-01T18:05:30.941Z,41.80
2018-07-01T18:08:02.070Z,41.80
2018-07-01T18:10:33.690Z,42.00
2018-07-01T18:13:06.251Z,42.00
2018-07-01T18:15:37.477Z,42.20
2018-07-01T18:18:18.184Z,42.40
2018-07-01T18:23:53.696Z,42.90
2018-07-01T18:25:55.165Z,43.00
2018-07-01T18:28:37.864Z,43.40
2018-07-01T18:30:57.549Z,43.40
2018-07-01T18:33:37.251Z,43.60
2018-07-01T18:36:05.507Z,44.10
2018-07-01T18:38:33.755Z,44.00
2018-07-01T18:41:07.570Z,44.00
2018-07-01T18:43:35.832Z,44.10
2018-07-01T18:46:11.494Z,44.50
2018-07-01T18:48:39.667Z,44.50
2018-07-01T18:51:10.831Z,45.00
2018-07-01T18:53:44.924Z,45.30
2018-07-01T18:56:13.185Z,45.60
2018-07-01T18:58:44.356Z,46.00
2018-07-01T19:01:26.453Z,46.20
2018-07-01T19:03:54.737Z,46.70
2018-07-01T19:06:23.130Z,46.90
2018-07-01T19:08:56.532Z,47.00
2018-07-01T19:11:31.418Z,47.40
2018-07-01T19:13:59.695Z,47.80
2018-07-01T19:16:28.083Z,48.30
2018-07-01T19:18:56.385Z,48.30
2018-07-01T19:21:27.555Z,48.70
2018-07-01T19:24:07.233Z,48.80
2018-07-01T19:26:43.948Z,49.30
2018-07-01T19:29:12.608Z,49.60
2018-07-01T19:31:40.970Z,50.20
2018-07-01T19:34:09.267Z,50.50
2018-07-01T19:36:42.769Z,51.00
2018-07-01T19:41:56.009Z,52.00
2018-07-01T19:44:27.319Z,52.40
2018-07-01T19:46:55.579Z,52.90
2018-07-01T19:49:26.491Z,54.10
2018-07-01T19:51:56.729Z,54.00
2018-07-01T19:54:24.988Z,54.70
2018-07-01T19:56:57.424Z,55.30
2018-07-01T19:59:37.253Z,56.30
2018-07-01T20:02:05.551Z,56.80
2018-07-01T20:04:33.816Z,58.40
2018-07-01T20:07:02.697Z,58.50
2018-07-01T20:09:31.094Z,59.00
2018-07-01T20:11:59.519Z,59.50
2018-07-01T20:14:27.767Z,60.00
2018-07-01T20:17:03.179Z,60.50
2018-07-01T20:19:36.405Z,61.40
2018-07-01T20:22:14.649Z,62.20
2018-07-01T20:24:45.803Z,63.00
2018-07-01T20:27:13.815Z,63.70
2018-07-01T20:29:46.152Z,64.40
2018-07-01T20:32:16.133Z,65.10
2018-07-01T20:34:50.283Z,65.80
2018-07-01T20:37:21.365Z,66.40
2018-07-01T20:39:49.811Z,66.80
2018-07-01T20:42:18.037Z,67.40
2018-07-01T20:44:49.398Z,68.40
2018-07-01T20:47:22.434Z,68.70
2018-07-01T20:50:02.510Z,69.20
2018-07-01T20:52:30.772Z,69.70
2018-07-01T20:55:05.453Z,70.50
2018-07-01T20:57:33.662Z,71.10
2018-07-01T21:00:06.605Z,72.00
2018-07-01T21:02:35.022Z,72.90
2018-07-01T21:05:03.616Z,73.70
2018-07-01T21:07:34.542Z,74.50
2018-07-01T21:10:10.791Z,75.20
2018-07-01T21:12:46.885Z,75.60
2018-07-01T21:15:15.327Z,76.20
2018-07-01T21:17:43.551Z,76.50
2018-07-01T21:22:42.995Z,77.40
2018-07-01T21:25:13.402Z,77.50
2018-07-01T21:27:44.824Z,77.80
2018-07-01T21:30:15.146Z,78.10
2018-07-01T21:32:43.413Z,78.20
2018-07-01T21:35:17.064Z,78.70
2018-07-01T21:37:45.372Z,79.10
2018-07-01T21:40:17.756Z,79.80
2018-07-01T21:42:55.368Z,79.90
2018-07-01T21:45:23.710Z,80.20
2018-07-01T21:47:55.356Z,80.30
2018-07-01T21:50:23.655Z,80.50
2018-07-01T21:52:54.519Z,80.70
2018-07-01T21:55:25.663Z,80.60
2018-07-01T21:57:58.930Z,81.10
2018-07-01T22:00:32.581Z,81.70
2018-07-01T22:03:05.514Z,81.90
2018-07-01T22:05:34.092Z,82.30
2018-07-01T22:08:08.440Z,82.70
2018-07-01T22:10:48.568Z,83.20
2018-07-01T22:13:33.817Z,83.80
2018-07-01T22:16:07.761Z,84.30
2018-07-01T22:18:38.902Z,84.70
2018-07-01T22:21:07.724Z,85.00
2018-07-01T22:23:47.715Z,85.60
2018-07-01T22:26:16.054Z,86.10
2018-07-01T22:28:44.304Z,87.00
2018-07-01T22:31:19.053Z,88.30
2018-07-01T22:33:47.632Z,87.70
2018-07-01T22:36:16.003Z,87.90
2018-07-01T22:38:44.251Z,88.80
2018-07-01T22:41:15.291Z,89.10
2018-07-01T22:43:45.641Z,89.30
2018-07-01T22:46:13.925Z,89.70
2018-07-01T22:48:42.303Z,89.70
2018-07-01T22:53:41.204Z,90.10
2018-07-01T22:56:14.680Z,90.20
2018-07-01T22:58:49.346Z,90.30
2018-07-01T23:01:17.584Z,90.50
2018-07-01T23:03:58.370Z,90.60
2018-07-01T23:06:27.162Z,90.80
2018-07-01T23:09:07.020Z,90.90
2018-07-01T23:11:40.273Z,90.90
2018-07-01T23:14:16.754Z,90.90
2018-07-01T23:16:58.771Z,90.90
2018-07-01T23:19:37.301Z,90.90
2018-07-01T23:22:12.097Z,91.00
2018-07-01T23:24:40.405Z,90.80
2018-07-01T23:27:11.522Z,90.90
2018-07-01T23:29:43.023Z,90.90
2018-07-01T23:32:13.254Z,91.00
2018-07-01T23:34:41.560Z,91.10
2018-07-01T23:37:10.058Z,91.10
2018-07-01T23:39:41.121Z,91.20
2018-07-01T23:42:17.073Z,91.20
2018-07-01T23:44:45.664Z,91.30
2018-07-01T23:47:13.952Z,91.80
2018-07-01T23:49:48.792Z,91.60
2018-07-01T23:52:28.781Z,91.60
2018-07-01T23:54:57.279Z,91.70
2018-07-01T23:57:28.308Z,91.80
2018-07-01T23:59:59.854Z,91.90
